Time;durP1;ratioP1;P1;durP2;ratioP2;P2;SDS_P1;SDS_P2;PMS_P1;PMS_P2;Temp;Humidity;BMP_temperature;BMP_pressure;BME280_temperature;BME280_humidity;BME280_pressure;Samples;Min_cycle;Max_cycle;Signal;HPM_P1;HPM_P2
2023/07/22 00:00:50;;;;;;;10.80;4.35;;;;;;;28.73;77.42;97241.00;5048042;28;20475;-74
2023/07/22 00:03:16;;;;;;;9.35;4.75;;;;;;;28.60;80.47;97235.53;5071531;28;20016;-73
2023/07/22 00:05:41;;;;;;;7.55;4.20;;;;;;;28.49;82.75;97250.78;5064473;28;20063;-74
2023/07/22 00:08:07;;;;;;;6.30;3.97;;;;;;;28.33;88.02;97275.97;5033202;28;20032;-73
2023/07/22 00:10:32;;;;;;;7.57;4.10;;;;;;;28.12;94.17;97270.72;5050956;28;20565;-73
2023/07/22 00:12:58;;;;;;;14.73;4.57;;;;;;;27.89;98.38;97273.00;5050198;28;20036;-74
2023/07/22 00:15:25;;;;;;;18.15;4.25;;;;;;;27.77;100.00;97281.03;5057585;28;20371;-74
2023/07/22 00:17:51;;;;;;;9.02;4.22;;;;;;;27.58;100.00;97276.34;5064079;28;20135;-73
2023/07/22 00:20:17;;;;;;;11.75;4.22;;;;;;;27.41;100.00;97281.34;5058764;28;20020;-73
2023/07/22 00:22:42;;;;;;;12.02;3.92;;;;;;;27.26;100.00;97282.53;5051158;28;20074;-73
2023/07/22 00:25:10;;;;;;;10.77;4.28;;;;;;;27.09;100.00;97281.22;5071244;28;20060;-72
2023/07/22 00:27:37;;;;;;;9.15;4.00;;;;;;;26.87;100.00;97283.25;5052526;28;20027;-72
2023/07/22 00:30:05;;;;;;;14.15;4.20;;;;;;;26.72;100.00;97282.50;5051023;28;20476;-74
2023/07/22 00:32:30;;;;;;;11.52;4.30;;;;;;;26.66;100.00;97267.69;5065504;28;20048;-73
2023/07/22 00:34:56;;;;;;;15.35;4.40;;;;;;;26.61;100.00;97272.09;5059113;28;20041;-73
2023/07/22 00:37:22;;;;;;;12.05;4.50;;;;;;;26.46;100.00;97280.41;5049637;28;20032;-73
2023/07/22 00:39:47;;;;;;;11.32;4.22;;;;;;;26.42;100.00;97283.78;5053260;28;20032;-73
2023/07/22 00:42:13;;;;;;;9.35;4.40;;;;;;;26.26;100.00;97291.28;5051008;28;20439;-73
2023/07/22 00:44:38;;;;;;;10.27;4.20;;;;;;;26.22;100.00;97289.97;5049657;28;20028;-74
2023/07/22 00:47:04;;;;;;;16.67;4.53;;;;;;;26.16;100.00;97285.28;5049434;28;20032;-73
2023/07/22 00:49:29;;;;;;;10.30;3.80;;;;;;;26.06;100.00;97292.97;5049390;28;20029;-74
2023/07/22 00:52:00;;;;;;;15.90;4.93;;;;;;;26.02;100.00;97305.38;5048774;28;20393;-74
2023/07/22 00:54:25;;;;;;;11.00;4.18;;;;;;;25.93;100.00;97312.06;5049990;28;20048;-73
2023/07/22 00:56:51;;;;;;;10.43;4.65;;;;;;;25.93;100.00;97322.16;5070329;28;20137;-73
2023/07/22 00:59:16;;;;;;;11.05;4.22;;;;;;;25.91;100.00;97329.72;5069176;28;20031;-73
2023/07/22 01:01:42;;;;;;;34.92;17.60;;;;;;;25.75;100.00;97336.31;5069512;28;20032;-74
2023/07/22 01:04:07;;;;;;;6.60;4.93;;;;;;;25.74;100.00;97340.09;5070349;28;20025;-73
2023/07/22 01:06:34;;;;;;;8.27;4.00;;;;;;;25.61;100.00;97356.41;5056292;28;20500;-73
2023/07/22 01:09:00;;;;;;;8.25;4.13;;;;;;;25.55;100.00;97344.34;5051406;28;20381;-74
2023/07/22 01:11:25;;;;;;;12.07;4.38;;;;;;;25.40;100.00;97357.19;5055147;28;20055;-74
2023/07/22 01:13:52;;;;;;;9.90;4.35;;;;;;;25.45;100.00;97346.50;5032314;28;20024;-74
2023/07/22 01:16:18;;;;;;;8.65;4.03;;;;;;;25.47;100.00;97347.13;5049270;28;20032;-73
2023/07/22 01:18:43;;;;;;;8.20;4.45;;;;;;;25.28;100.00;97345.88;5032940;28;20028;-74
2023/07/22 01:21:09;;;;;;;14.75;4.35;;;;;;;25.11;100.00;97341.66;5036004;28;20033;-72
2023/07/22 01:23:36;;;;;;;7.15;4.45;;;;;;;25.00;100.00;97354.97;5054420;28;20086;-73
2023/07/22 01:26:02;;;;;;;9.50;4.55;;;;;;;24.92;100.00;97349.63;5054225;28;20408;-72
2023/07/22 01:28:28;;;;;;;16.17;4.22;;;;;;;24.87;100.00;97347.44;5052947;28;20017;-72
2023/07/22 01:30:54;;;;;;;10.70;4.18;;;;;;;24.79;100.00;97333.81;5054154;28;20049;-73
2023/07/22 01:33:19;;;;;;;13.15;5.00;;;;;;;24.76;100.00;97339.66;5052925;28;20064;-73
2023/07/22 01:35:45;;;;;;;18.65;4.18;;;;;;;24.81;100.00;97326.28;5054090;28;20373;-72
2023/07/22 01:38:10;;;;;;;8.85;4.22;;;;;;;24.81;100.00;97331.75;5055217;28;20484;-73
2023/07/22 01:40:36;;;;;;;9.13;4.32;;;;;;;24.74;100.00;97312.47;5064532;28;20024;-73
2023/07/22 01:43:01;;;;;;;12.27;4.70;;;;;;;24.74;100.00;97306.16;5072676;28;20107;-72
2023/07/22 01:45:27;;;;;;;7.75;4.22;;;;;;;24.77;100.00;97300.31;5072691;28;20058;-74
2023/07/22 01:47:52;;;;;;;10.73;4.40;;;;;;;24.75;100.00;97286.81;5057637;28;20059;-73
2023/07/22 01:50:18;;;;;;;10.80;4.80;;;;;;;24.68;100.00;97285.03;5063520;28;20365;-73
2023/07/22 01:52:46;;;;;;;17.52;5.10;;;;;;;24.58;100.00;97277.09;5057885;28;20024;-73
2023/07/22 01:55:11;;;;;;;8.02;4.57;;;;;;;24.54;100.00;97267.59;5063471;28;20025;-73
2023/07/22 01:57:37;;;;;;;12.85;5.18;;;;;;;24.53;100.00;97275.97;5066142;28;20162;-74
2023/07/22 02:00:05;;;;;;;10.43;4.43;;;;;;;24.40;100.00;97268.41;5063539;28;20029;-72
2023/07/22 02:02:30;;;;;;;9.05;4.78;;;;;;;24.34;100.00;97260.97;5053685;28;20029;-73
2023/07/22 02:04:56;;;;;;;9.25;4.75;;;;;;;24.17;100.00;97268.50;5051143;28;20432;-72
2023/07/22 02:07:21;;;;;;;17.00;4.40;;;;;;;24.07;100.00;97272.50;5052835;28;20020;-73
2023/07/22 02:09:47;;;;;;;8.63;5.10;;;;;;;23.99;100.00;97280.78;5052475;28;20029;-72
2023/07/22 02:12:12;;;;;;;13.02;4.80;;;;;;;23.99;100.00;97276.19;5053583;28;20506;-73
2023/07/22 02:14:38;;;;;;;15.48;4.38;;;;;;;23.94;100.00;97273.13;5048630;28;20111;-73
2023/07/22 02:17:03;;;;;;;14.48;5.55;;;;;;;23.84;100.00;97282.66;5071914;28;20039;-74
2023/07/22 02:19:29;;;;;;;13.15;4.57;;;;;;;23.76;100.00;97280.81;5073597;28;20032;-73
2023/07/22 02:21:54;;;;;;;18.50;4.15;;;;;;;23.83;100.00;97276.31;5070537;28;20028;-74
2023/07/22 02:24:21;;;;;;;10.95;4.32;;;;;;;23.84;100.00;97269.81;5071628;28;20479;-73
2023/07/22 02:26:46;;;;;;;10.25;4.82;;;;;;;23.78;100.00;97272.44;5051026;28;20036;-72
2023/07/22 02:29:12;;;;;;;8.82;3.92;;;;;;;23.81;100.00;97270.19;5052559;28;20070;-73
2023/07/22 02:31:39;;;;;;;9.13;4.40;;;;;;;23.80;100.00;97264.91;5072721;28;20155;-72
2023/07/22 02:34:05;;;;;;;11.90;5.18;;;;;;;23.82;100.00;97266.41;5072009;28;20036;-73
2023/07/22 02:36:31;;;;;;;13.48;5.05;;;;;;;23.79;100.00;97265.94;5044723;28;20024;-73
2023/07/22 02:38:56;;;;;;;7.40;4.72;;;;;;;23.75;100.00;97273.66;5066667;28;20061;-73
2023/07/22 02:41:25;;;;;;;14.88;5.15;;;;;;;23.69;100.00;97274.38;5053412;28;20120;-73
2023/07/22 02:43:50;;;;;;;8.25;4.65;;;;;;;23.64;100.00;97279.56;5055283;28;20381;-73
2023/07/22 02:46:16;;;;;;;14.07;4.82;;;;;;;23.61;100.00;97272.59;5071842;28;20043;-73
2023/07/22 02:48:41;;;;;;;17.73;5.22;;;;;;;23.58;100.00;97278.41;5035368;28;20067;-73
2023/07/22 02:51:09;;;;;;;11.82;5.13;;;;;;;23.48;100.00;97271.47;5059704;28;20029;-73
2023/07/22 02:53:38;;;;;;;26.95;5.60;;;;;;;23.55;100.00;97276.03;5047230;28;20392;-73
2023/07/22 02:56:06;;;;;;;12.13;4.78;;;;;;;23.48;100.00;97285.97;5051521;28;20040;-72
2023/07/22 02:58:33;;;;;;;11.57;5.45;;;;;;;23.52;100.00;97289.22;5036928;28;20040;-72
2023/07/22 03:00:59;;;;;;;18.85;5.63;;;;;;;23.48;100.00;97277.78;5049954;28;20112;-72
2023/07/22 03:03:24;;;;;;;9.40;5.00;;;;;;;23.52;100.00;97278.28;5070321;28;20606;-73
2023/07/22 03:05:50;;;;;;;13.25;5.20;;;;;;;23.51;100.00;97266.50;5063957;28;20080;-72
2023/07/22 03:08:17;;;;;;;9.95;5.32;;;;;;;23.44;100.00;97265.53;5052636;28;20036;-73
2023/07/22 03:10:48;;;;;;;11.02;4.65;;;;;;;23.45;100.00;97272.69;5050877;28;20028;-73
2023/07/22 03:13:13;;;;;;;10.40;5.25;;;;;;;23.49;100.00;97267.72;5055850;28;20021;-73
2023/07/22 03:15:39;;;;;;;19.63;5.13;;;;;;;23.54;100.00;97270.75;5071109;28;20368;-73
2023/07/22 03:18:06;;;;;;;8.60;4.53;;;;;;;23.48;100.00;97268.75;5059371;28;21190;-73
2023/07/22 03:20:32;;;;;;;9.77;5.00;;;;;;;23.53;100.00;97264.44;5060650;28;20032;-73
2023/07/22 03:22:57;;;;;;;12.15;5.72;;;;;;;23.51;100.00;97273.84;5067865;28;20480;-73
2023/07/22 03:25:23;;;;;;;10.70;4.75;;;;;;;23.41;100.00;97256.88;5070619;28;20103;-73
2023/07/22 03:27:48;;;;;;;21.45;5.75;;;;;;;23.44;100.00;97264.69;5035975;28;20028;-73
2023/07/22 03:30:16;;;;;;;10.77;4.82;;;;;;;23.48;100.00;97268.75;5051575;28;20040;-73
2023/07/22 03:32:47;;;;;;;23.33;7.85;;;;;;;23.39;100.00;97278.88;5050761;28;20065;-73
2023/07/22 03:35:13;;;;;;;10.60;5.43;;;;;;;23.34;100.00;97275.84;5042521;28;20423;-72
2023/07/22 03:37:39;;;;;;;18.17;5.63;;;;;;;23.29;100.00;97283.69;5038702;28;20032;-72
2023/07/22 03:40:19;;;;;;;17.55;4.97;;;;;;;23.40;100.00;97285.19;5070696;28;20029;-72
2023/07/22 03:42:48;;;;;;;13.50;5.60;;;;;;;23.41;100.00;97282.28;5070010;28;20167;-75
2023/07/22 03:45:13;;;;;;;13.48;5.25;;;;;;;23.43;100.00;97295.75;5054741;28;20091;-73
2023/07/22 03:47:40;;;;;;;12.82;4.78;;;;;;;23.34;100.00;97294.09;5058930;28;20020;-74
2023/07/22 03:50:08;;;;;;;10.15;4.72;;;;;;;23.09;100.00;97299.69;5058375;28;20035;-75
2023/07/22 03:52:34;;;;;;;19.05;5.60;;;;;;;23.17;100.00;97302.38;5064139;28;20021;-75
2023/07/22 03:54:59;;;;;;;14.20;4.72;;;;;;;23.16;100.00;97311.56;5065471;28;20035;-75
2023/07/22 03:57:28;;;;;;;13.02;4.50;;;;;;;23.28;100.00;97319.38;5056362;28;20021;-75
2023/07/22 03:59:54;;;;;;;9.35;5.53;;;;;;;23.32;100.00;97327.00;5070393;28;20143;-74
2023/07/22 04:02:20;;;;;;;14.40;6.10;;;;;;;23.41;100.00;97336.06;5067281;28;20052;-73
2023/07/22 04:04:46;;;;;;;20.83;6.25;;;;;;;23.48;100.00;97334.28;5061141;28;20117;-74
2023/07/22 04:07:11;;;;;;;20.88;6.25;;;;;;;23.49;100.00;97341.47;5063674;28;20031;-73
2023/07/22 04:09:37;;;;;;;20.33;6.55;;;;;;;23.55;100.00;97347.06;5058578;28;20028;-75
2023/07/22 04:12:02;;;;;;;34.88;11.27;;;;;;;23.62;100.00;97360.84;5064584;28;20052;-75
2023/07/22 04:14:29;;;;;;;21.05;6.82;;;;;;;23.75;100.00;97358.34;5053570;28;20471;-74
2023/07/22 04:16:54;;;;;;;12.50;5.15;;;;;;;23.74;100.00;97362.13;5064653;28;20060;-74
2023/07/22 04:19:20;;;;;;;7.85;4.70;;;;;;;23.65;100.00;97365.94;5068051;28;20067;-74
2023/07/22 04:21:45;;;;;;;12.38;4.90;;;;;;;23.66;100.00;97362.16;5060659;28;20511;-74
2023/07/22 04:24:10;;;;;;;9.40;4.40;;;;;;;23.71;100.00;97367.94;5062290;28;20032;-74
2023/07/22 04:26:36;;;;;;;9.52;4.68;;;;;;;23.74;100.00;97373.03;5066625;28;20030;-73
2023/07/22 04:29:02;;;;;;;9.10;5.07;;;;;;;23.83;100.00;97374.69;5044603;28;20082;-73
2023/07/22 04:31:27;;;;;;;9.93;4.70;;;;;;;23.96;100.00;97376.81;5066575;28;20047;-74
2023/07/22 04:33:53;;;;;;;11.95;5.22;;;;;;;23.86;100.00;97366.13;5062382;28;20032;-74
2023/07/22 04:36:18;;;;;;;14.73;4.90;;;;;;;23.81;100.00;97365.78;5069584;28;20429;-74
2023/07/22 04:38:44;;;;;;;8.80;4.85;;;;;;;23.86;100.00;97377.06;5062173;28;20115;-74
2023/07/22 04:41:09;;;;;;;11.13;4.22;;;;;;;24.00;100.00;97376.25;5051589;28;20090;-73
2023/07/22 04:43:35;;;;;;;9.93;4.78;;;;;;;24.17;100.00;97375.13;5058770;28;20464;-76
2023/07/22 04:46:00;;;;;;;9.15;4.60;;;;;;;24.32;100.00;97377.03;5064064;28;20032;-73
2023/07/22 04:48:26;;;;;;;9.63;4.45;;;;;;;24.36;100.00;97379.25;5061756;28;20055;-73
2023/07/22 04:50:52;;;;;;;9.02;4.50;;;;;;;24.37;100.00;97377.31;5049360;28;20028;-72
2023/07/22 04:53:18;;;;;;;19.83;5.18;;;;;;;24.35;100.00;97379.41;5038348;28;20493;-73
2023/07/22 04:55:44;;;;;;;14.55;5.10;;;;;;;24.49;100.00;97378.56;5050483;28;20025;-73
2023/07/22 04:58:10;;;;;;;19.48;4.65;;;;;;;24.48;100.00;97372.28;5053037;28;20025;-73
2023/07/22 05:00:38;;;;;;;9.55;4.40;;;;;;;24.61;100.00;97368.91;5034142;28;20476;-75
2023/07/22 05:03:05;;;;;;;9.07;4.60;;;;;;;24.75;100.00;97370.78;5051971;28;20104;-75
2023/07/22 05:05:31;;;;;;;9.48;4.45;;;;;;;25.20;100.00;97381.56;5049262;28;20033;-75
2023/07/22 05:07:57;;;;;;;8.45;4.30;;;;;;;25.95;100.00;97380.38;5049053;28;20031;-75
2023/07/22 05:10:22;;;;;;;22.13;8.02;;;;;;;26.44;100.00;97372.22;5050392;28;20029;-75
2023/07/22 05:12:48;;;;;;;24.25;7.28;;;;;;;26.58;100.00;97383.09;5048825;28;20473;-75
2023/07/22 05:15:15;;;;;;;26.42;8.38;;;;;;;26.69;100.00;97374.31;5049239;28;20028;-76
2023/07/22 05:17:41;;;;;;;14.15;4.55;;;;;;;26.78;100.00;97378.63;5032392;28;20033;-75
2023/07/22 05:20:09;;;;;;;12.77;5.40;;;;;;;26.65;100.00;97402.34;5049069;28;20031;-75
2023/07/22 05:22:35;;;;;;;16.75;4.70;;;;;;;26.88;100.00;97403.00;5048934;28;20468;-75
2023/07/22 05:25:01;;;;;;;33.70;5.45;;;;;;;27.40;100.00;97405.22;5059469;28;20433;-75
2023/07/22 05:27:26;;;;;;;13.73;4.70;;;;;;;27.97;100.00;97408.41;5069196;28;20082;-75
2023/07/22 05:29:52;;;;;;;29.58;11.48;;;;;;;28.82;100.00;97398.63;5068725;28;20048;-74
2023/07/22 05:32:17;;;;;;;22.00;12.40;;;;;;;29.58;100.00;97397.81;5064394;28;20049;-75
2023/07/22 05:34:43;;;;;;;11.88;4.10;;;;;;;30.73;98.76;97395.88;5032241;28;20096;-75
2023/07/22 05:37:08;;;;;;;12.02;5.43;;;;;;;31.43;94.69;97406.47;5034984;28;20025;-75
2023/07/22 05:39:34;;;;;;;20.40;5.22;;;;;;;32.36;87.18;97397.84;5052967;28;20021;-76
2023/07/22 05:41:59;;;;;;;14.07;5.63;;;;;;;32.97;79.69;97386.44;5048930;28;20605;-75
2023/07/22 05:44:25;;;;;;;18.70;4.47;;;;;;;32.95;76.60;97380.28;5048977;28;20028;-75
2023/07/22 05:46:50;;;;;;;8.95;4.40;;;;;;;33.08;73.54;97385.59;5050098;28;20039;-75
2023/07/22 05:49:16;;;;;;;16.73;4.57;;;;;;;33.47;72.05;97386.78;5048694;28;20332;-75
2023/07/22 05:51:41;;;;;;;8.68;4.10;;;;;;;34.10;66.49;97384.84;5064029;28;20035;-75
2023/07/22 05:54:07;;;;;;;8.35;4.13;;;;;;;34.49;63.12;97377.50;5051980;28;20453;-74
2023/07/22 05:56:32;;;;;;;10.93;4.50;;;;;;;34.92;59.96;97384.41;5070097;28;20035;-75
2023/07/22 05:58:58;;;;;;;12.15;4.95;;;;;;;35.16;57.78;97374.81;5068501;28;20029;-74
2023/07/22 06:01:24;;;;;;;8.38;5.10;;;;;;;35.87;56.02;97388.63;5068773;28;20074;-74
2023/07/22 06:03:50;;;;;;;8.80;4.47;;;;;;;35.04;57.26;97394.31;5068928;28;20535;-74
2023/07/22 06:06:15;;;;;;;8.27;4.47;;;;;;;35.13;58.20;97414.25;5054405;28;20116;-74
2023/07/22 06:08:41;;;;;;;10.57;5.10;;;;;;;36.16;54.96;97416.28;5072430;28;20024;-74
2023/07/22 06:11:07;;;;;;;12.43;6.00;;;;;;;35.63;55.75;97414.19;5072198;28;20072;-74
2023/07/22 06:13:32;;;;;;;10.10;6.65;;;;;;;33.97;60.83;97420.34;5072415;28;20074;-73
2023/07/22 06:15:58;;;;;;;11.95;7.13;;;;;;;34.07;61.95;97429.75;5072003;28;20026;-75
2023/07/22 06:18:23;;;;;;;11.15;5.70;;;;;;;34.10;62.32;97428.44;5072086;28;20500;-74
2023/07/22 06:20:49;;;;;;;27.13;7.97;;;;;;;34.98;59.01;97425.13;5073340;28;20024;-74
2023/07/22 06:23:15;;;;;;;18.83;7.35;;;;;;;35.71;55.58;97420.19;5073321;28;20495;-74
2023/07/22 06:25:40;;;;;;;23.15;6.50;;;;;;;36.93;52.05;97430.78;5072117;28;20036;-73
2023/07/22 06:28:06;;;;;;;60.70;11.00;;;;;;;36.70;53.14;97434.75;5073128;28;20016;-74
2023/07/22 06:30:32;;;;;;;12.65;5.78;;;;;;;36.90;51.75;97440.53;5055278;28;20403;-74
2023/07/22 06:32:57;;;;;;;22.38;6.03;;;;;;;37.55;49.75;97436.66;5074230;28;20028;-77
2023/07/22 06:35:23;;;;;;;17.73;5.43;;;;;;;37.09;48.95;97438.22;5073689;28;20020;-76
2023/07/22 06:37:48;;;;;;;20.10;5.80;;;;;;;36.90;50.30;97446.13;5056804;28;20036;-76
2023/07/22 06:40:14;;;;;;;9.40;5.40;;;;;;;37.98;47.45;97429.94;5074422;28;20373;-74
2023/07/22 06:42:39;;;;;;;10.82;5.35;;;;;;;37.65;47.90;97433.91;5067139;28;20373;-75
2023/07/22 06:45:06;;;;;;;13.25;5.15;;;;;;;37.28;48.85;97433.91;5062729;28;20078;-75
2023/07/22 06:47:31;;;;;;;8.77;5.40;;;;;;;38.11;47.24;97437.81;5072151;28;20377;-74
2023/07/22 06:49:57;;;;;;;13.38;5.70;;;;;;;38.05;46.46;97435.28;5072589;28;20048;-74
2023/07/22 06:52:23;;;;;;;19.50;6.60;;;;;;;38.56;45.82;97423.16;5072725;28;20146;-74
2023/07/22 06:54:49;;;;;;;14.80;5.47;;;;;;;38.91;44.62;97423.25;5071668;28;20033;-75
2023/07/22 06:57:14;;;;;;;17.15;5.75;;;;;;;39.02;43.23;97410.94;5071335;28;20013;-74
2023/07/22 06:59:40;;;;;;;10.00;5.13;;;;;;;39.08;42.77;97413.72;5072713;28;20055;-74
2023/07/22 07:02:06;;;;;;;15.82;5.30;;;;;;;39.14;41.94;97415.41;5071324;28;20064;-75
2023/07/22 07:04:31;;;;;;;9.82;4.85;;;;;;;39.62;40.88;97409.22;5072536;28;20404;-75
2023/07/22 07:06:57;;;;;;;12.85;5.55;;;;;;;39.87;40.19;97408.34;5071414;28;20043;-74
2023/07/22 07:09:22;;;;;;;12.77;5.53;;;;;;;40.52;38.34;97408.06;5054450;28;20107;-74
2023/07/22 07:11:48;;;;;;;13.77;4.80;;;;;;;40.67;38.66;97407.13;5071269;28;20089;-74
2023/07/22 07:14:13;;;;;;;21.38;5.40;;;;;;;40.24;39.24;97393.91;5072285;28;20070;-74
2023/07/22 07:16:39;;;;;;;14.02;5.53;;;;;;;40.47;38.91;97387.59;5070148;28;20028;-74
2023/07/22 07:19:04;;;;;;;15.73;6.18;;;;;;;41.43;37.92;97384.09;5071221;28;20020;-74
2023/07/22 07:21:30;;;;;;;16.60;11.90;;;;;;;40.88;37.61;97376.94;5053946;28;20028;-75
2023/07/22 07:23:56;;;;;;;10.98;5.65;;;;;;;41.73;36.89;97380.94;5054535;28;20503;-74
2023/07/22 07:26:22;;;;;;;14.40;5.07;;;;;;;42.16;35.86;97370.56;5072127;28;20020;-75
2023/07/22 07:28:49;;;;;;;7.38;4.40;;;;;;;42.07;35.04;97375.19;5070884;28;20032;-75
2023/07/22 07:31:14;;;;;;;7.57;4.30;;;;;;;42.09;33.74;97368.13;5070722;28;20423;-75
2023/07/22 07:33:39;;;;;;;13.32;5.88;;;;;;;42.38;34.07;97364.41;5054000;28;20024;-74
2023/07/22 07:36:05;;;;;;;7.38;4.03;;;;;;;42.13;33.54;97363.59;5070817;28;20028;-75
2023/07/22 07:38:31;;;;;;;11.30;4.32;;;;;;;41.82;34.19;97358.66;5071814;28;20036;-75
2023/07/22 07:41:02;;;;;;;21.40;4.57;;;;;;;42.63;33.17;97349.97;5070725;28;20457;-75
2023/07/22 07:43:28;;;;;;;10.52;3.78;;;;;;;42.62;32.89;97340.69;5053211;28;20033;-75
2023/07/22 07:46:14;;;;;;;10.82;3.38;;;;;;;41.64;33.57;97332.97;5071751;28;20087;-75
2023/07/22 07:48:40;;;;;;;16.13;4.95;;;;;;;41.39;34.04;97326.81;5070616;28;20486;-75
2023/07/22 07:51:06;;;;;;;13.02;3.80;;;;;;;42.18;32.72;97333.75;5070660;28;20020;-75
2023/07/22 07:53:31;;;;;;;17.35;3.45;;;;;;;42.12;31.86;97328.16;5070331;28;20101;-75
2023/07/22 07:55:57;;;;;;;9.00;3.38;;;;;;;42.51;31.31;97325.09;5070323;28;20428;-73
2023/07/22 07:58:22;;;;;;;10.20;3.72;;;;;;;42.35;31.74;97328.44;5070226;28;20048;-74
2023/07/22 08:00:48;;;;;;;12.45;3.83;;;;;;;42.38;32.56;97331.47;5071546;28;20025;-73
2023/07/22 08:03:13;;;;;;;8.57;3.38;;;;;;;43.30;30.86;97326.03;5071584;28;20082;-74
2023/07/22 08:05:39;;;;;;;9.38;3.42;;;;;;;44.41;29.62;97325.72;5071701;28;20055;-74
2023/07/22 08:08:05;;;;;;;10.23;3.97;;;;;;;44.34;29.46;97309.22;5064928;28;20040;-77
2023/07/22 08:10:30;;;;;;;13.05;3.40;;;;;;;44.06;29.75;97305.59;5049171;28;20729;-73
2023/07/22 08:12:56;;;;;;;15.80;3.53;;;;;;;43.78;30.27;97305.97;5071355;28;20016;-74
2023/07/22 08:15:21;;;;;;;9.23;3.15;;;;;;;43.56;29.89;97281.31;5062950;28;20021;-75
2023/07/22 08:17:47;;;;;;;5.30;3.08;;;;;;;44.22;29.38;97290.03;5061711;28;20028;-74
2023/07/22 08:20:13;;;;;;;8.15;3.35;;;;;;;44.21;29.41;97285.53;5071295;28;20024;-75
2023/07/22 08:22:38;;;;;;;9.27;3.40;;;;;;;43.08;30.39;97292.91;5069864;28;20047;-75
2023/07/22 08:25:04;;;;;;;13.18;3.72;;;;;;;43.09;30.71;97286.13;5069918;28;20028;-74
2023/07/22 08:27:30;;;;;;;5.93;3.08;;;;;;;42.75;31.50;97279.13;5070651;28;20021;-75
2023/07/22 08:29:55;;;;;;;9.15;4.25;;;;;;;43.24;30.98;97268.09;5070967;28;20472;-74
2023/07/22 08:32:21;;;;;;;10.65;4.00;;;;;;;42.98;31.23;97275.38;5069572;28;20050;-75
2023/07/22 08:34:46;;;;;;;6.53;3.80;;;;;;;41.53;33.22;97268.78;5052883;28;20032;-74
2023/07/22 08:37:12;;;;;;;14.00;3.88;;;;;;;43.19;31.82;97269.00;5069873;28;20029;-74
2023/07/22 08:39:37;;;;;;;9.18;3.78;;;;;;;44.36;30.74;97269.41;5070793;28;20103;-75
2023/07/22 08:42:05;;;;;;;9.75;3.80;;;;;;;43.69;30.07;97263.53;5069672;28;20028;-75
2023/07/22 08:44:35;;;;;;;11.57;4.00;;;;;;;43.03;31.09;97252.75;5069620;28;20020;-74
2023/07/22 08:47:03;;;;;;;9.73;3.90;;;;;;;42.88;31.06;97255.81;5070782;28;20113;-75
2023/07/22 08:49:30;;;;;;;8.77;3.70;;;;;;;43.43;30.76;97245.50;5069607;28;20470;-75
2023/07/22 08:51:56;;;;;;;12.30;4.50;;;;;;;44.09;29.19;97239.25;5060406;28;20111;-74
2023/07/22 08:54:23;;;;;;;7.88;3.30;;;;;;;45.13;28.63;97222.78;5049584;28;20021;-74
2023/07/22 08:56:50;;;;;;;11.80;3.95;;;;;;;45.34;28.41;97217.44;5032668;28;20033;-74
2023/07/22 08:59:19;;;;;;;11.38;3.40;;;;;;;45.04;27.80;97213.44;5050390;28;20061;-74
2023/07/22 09:01:47;;;;;;;9.35;3.03;;;;;;;44.28;28.94;97211.72;5049227;28;20483;-74
2023/07/22 09:04:13;;;;;;;12.85;3.50;;;;;;;44.61;28.69;97209.53;5049445;28;20500;-74
2023/07/22 09:06:38;;;;;;;14.23;3.33;;;;;;;45.31;28.34;97200.31;5032614;28;20033;-74
2023/07/22 09:09:07;;;;;;;11.88;3.65;;;;;;;45.82;27.58;97197.63;5049276;28;20075;-74
2023/07/22 09:11:33;;;;;;;7.85;2.97;;;;;;;45.03;28.02;97189.19;5033158;28;20028;-74
2023/07/22 09:14:00;;;;;;;8.00;3.67;;;;;;;44.33;28.38;97185.38;5046453;28;20025;-74
2023/07/22 09:16:27;;;;;;;7.65;2.95;;;;;;;45.10;27.83;97174.59;5049332;28;20082;-74
2023/07/22 09:18:55;;;;;;;17.23;3.75;;;;;;;45.93;27.84;97182.00;5048989;28;20017;-74
2023/07/22 09:21:21;;;;;;;7.10;3.25;;;;;;;47.30;26.33;97181.84;5049537;28;20424;-75
2023/07/22 09:23:46;;;;;;;11.35;4.13;;;;;;;47.05;26.56;97174.25;5049032;28;20044;-75
2023/07/22 09:26:13;;;;;;;6.90;3.35;;;;;;;47.06;26.24;97177.91;5050478;28;20057;-75
2023/07/22 09:28:54;;;;;;;14.13;9.55;;;;;;;46.47;26.83;97163.56;5048999;28;20094;-76
2023/07/22 09:31:24;;;;;;;10.13;3.60;;;;;;;46.96;26.52;97164.09;5048948;28;20044;-75
2023/07/22 09:33:50;;;;;;;17.08;3.90;;;;;;;47.13;26.64;97162.03;5050771;28;20055;-75
2023/07/22 09:36:16;;;;;;;13.50;4.53;;;;;;;48.02;25.94;97160.91;5033488;28;20095;-75
2023/07/22 09:38:42;;;;;;;14.07;4.10;;;;;;;48.20;26.11;97173.78;5049339;28;20033;-75
2023/07/22 09:41:08;;;;;;;11.38;3.92;;;;;;;47.43;26.77;97164.91;5052964;28;20480;-73
2023/07/22 09:43:38;;;;;;;13.05;4.55;;;;;;;47.06;27.38;97170.25;5054533;28;20025;-75
2023/07/22 09:46:08;;;;;;;6.50;4.05;;;;;;;47.11;27.09;97167.22;5052842;28;20090;-74
2023/07/22 09:48:53;;;;;;;10.13;3.47;;;;;;;46.29;27.50;97159.88;5052972;28;20396;-73
2023/07/22 09:51:18;;;;;;;9.88;3.67;;;;;;;45.52;28.16;97156.13;5053938;28;20536;-75
2023/07/22 09:53:45;;;;;;;9.20;4.03;;;;;;;46.26;27.88;97156.88;5052805;28;20056;-74
2023/07/22 09:56:11;;;;;;;14.55;4.07;;;;;;;46.37;27.83;97161.03;5052932;28;20028;-74
2023/07/22 10:01:26;;;;;;;14.40;4.68;;;;;;;47.53;26.84;97154.06;5053023;28;20039;-74
2023/07/22 10:03:56;;;;;;;10.43;4.70;;;;;;;47.48;27.38;97159.03;5052408;28;20033;-75
2023/07/22 10:06:24;;;;;;;15.60;4.20;;;;;;;47.78;26.98;97155.84;5052726;28;20108;-74
2023/07/22 10:08:49;;;;;;;18.50;4.88;;;;;;;47.59;26.94;97157.50;5035893;28;20029;-74
2023/07/22 10:11:15;;;;;;;10.60;4.10;;;;;;;47.25;26.57;97147.19;5052531;28;20032;-74
2023/07/22 10:13:41;;;;;;;24.15;5.28;;;;;;;47.96;25.86;97150.09;5052528;28;20025;-74
2023/07/22 10:16:07;;;;;;;12.77;4.43;;;;;;;48.06;25.63;97143.97;5052301;28;20112;-73
2023/07/22 10:18:34;;;;;;;14.50;5.35;;;;;;;48.23;25.40;97150.38;5035578;28;20025;-74
2023/07/22 10:21:00;;;;;;;12.10;4.70;;;;;;;47.93;25.85;97140.28;5053506;28;20021;-75
2023/07/22 10:23:26;;;;;;;13.50;5.78;;;;;;;47.50;26.46;97148.19;5052503;28;20025;-74
2023/07/22 10:25:53;;;;;;;9.77;4.90;;;;;;;46.65;27.23;97131.19;5035507;28;20404;-74
2023/07/22 10:28:20;;;;;;;14.02;5.00;;;;;;;47.70;27.14;97136.06;5052405;28;20100;-74
2023/07/22 10:30:45;;;;;;;10.77;5.65;;;;;;;48.26;27.19;97144.00;5035472;28;20071;-74
2023/07/22 10:33:11;;;;;;;20.73;6.07;;;;;;;48.22;25.62;97140.19;5053178;28;20132;-74
2023/07/22 10:35:42;;;;;;;16.73;6.25;;;;;;;48.88;26.11;97131.66;5035541;28;20397;-76
2023/07/22 10:38:13;;;;;;;20.58;5.88;;;;;;;49.50;25.27;97131.38;5051929;28;20021;-75
2023/07/22 10:40:50;;;;;;;18.30;5.45;;;;;;;49.05;24.78;97120.09;5035219;28;20035;-75
2023/07/22 10:43:28;;;;;;;15.30;6.20;;;;;;;49.45;24.30;97130.78;5071585;28;20024;-75
2023/07/22 10:45:56;;;;;;;19.83;7.68;;;;;;;49.31;23.77;97119.78;5055021;28;20035;-74
2023/07/22 10:48:25;;;;;;;19.08;6.10;;;;;;;49.79;23.67;97121.75;5073111;28;20021;-74
2023/07/22 10:50:53;;;;;;;20.30;6.38;;;;;;;50.10;23.43;97127.63;5071706;28;20040;-73
2023/07/22 10:53:24;;;;;;;18.02;6.88;;;;;;;50.00;23.92;97127.28;5051792;28;20115;-74
2023/07/22 10:56:24;;;;;;;29.33;7.78;;;;;;;51.36;23.09;97129.56;5053035;28;20408;-74
2023/07/22 10:58:50;;;;;;;20.05;6.78;;;;;;;52.11;22.25;97128.50;5066038;28;20040;-75
2023/07/22 11:01:36;;;;;;;35.28;8.00;;;;;;;50.59;22.71;97118.88;5062025;28;20403;-75
2023/07/22 11:04:12;;;;;;;24.58;6.40;;;;;;;50.75;23.20;97119.75;5051481;28;20029;-75
2023/07/22 11:06:44;;;;;;;14.68;5.70;;;;;;;50.84;22.13;97114.69;5034952;28;20087;-74
2023/07/22 11:09:30;;;;;;;51.97;8.07;;;;;;;49.89;23.33;97118.41;5052819;28;20021;-75
2023/07/22 11:11:58;;;;;;;23.17;6.28;;;;;;;48.81;23.39;97109.50;5052637;28;20025;-75
2023/07/22 11:14:29;;;;;;;19.05;5.57;;;;;;;49.13;22.55;97104.13;5051206;28;20036;-75
2023/07/22 11:16:57;;;;;;;32.05;6.07;;;;;;;49.04;23.22;97094.88;5052473;28;20021;-75
2023/07/22 11:19:24;;;;;;;16.92;6.15;;;;;;;49.52;22.37;97094.88;5051207;28;20028;-75
2023/07/22 11:21:51;;;;;;;21.00;6.03;;;;;;;50.07;22.14;97101.88;5051403;28;20060;-75
2023/07/22 11:24:17;;;;;;;21.33;6.65;;;;;;;48.90;24.03;97106.56;5034834;28;20029;-75